Minneapolis, MN (55401)

2:20 PM CST on February 10, 2016 (GMT -0600)
North Loop | | Change Station
CLOSE
Current Station
Personal Weather Station
Location: Minneapolis, MN
Elevation: 823 ft
Nearby Weather Stations

Elev 823 ft 44.99 °N, 93.28 °W | Updated 10 seconds ago

Overcast
Overcast
11.1 °F
Feels Like 11 °F
N
1.3
Wind Variable Wind from NNE
Gusts 2.5 mph

Today
High -- | Low -- °F
--% Chance of Precip.
Yesterday
High -- | Low -- °F
Precip. -- in
Pressure 30.16 in
Visibility 10.0 miles
Clouds Few 12000 ft
Windchill 11 °F
Dew Point -8 °F
Humidity 41%
Rainfall 0.00 in
Snow Depth Not available.
7:21 AM 5:33 PM
Waxing Crescent, 7% visible
METAR KMIC 101953Z 03005KT 10SM FEW120 M11/M20 A3010 RMK AO2 SLP212 T11111200
Pressure 30.16 in
Visibility 10.0 miles
Clouds Few 12000 ft
Windchill 11 °F
Dew Point -8 °F
Humidity 41%
Rainfall 0.00 in
Snow Depth Not available.
7:21 AM 5:33 PM
Waxing Crescent, 7% visible
METAR KMIC 101953Z 03005KT 10SM FEW120 M11/M20 A3010 RMK AO2 SLP212 T11111200

10-Day Weather Forecast

Almanac

Astronomy

Feb. 10, 2016 Rise Set
Actual Time
Civil Twilight
Nautical Twilight
Astronomical Twilight
Moon
Length of Visible Light
Length of Day
Tomorrow will be .
, % of the Moon is Illuminated

Today's Extremes

State Highs State Lows

Community

WunderPhotos

Upload Photos

1,891,933 photos uploaded!

WunderBlog® & News

Nearby

Air Quality

  Air Quality AQ Index Pollutant
Not available.

Snow Depth

Station Depth Elevation

Earthquake Activity

City Distance Mag. Time & Date
Minimum magnitude displayed is 2.5.

Coastal Water Temperatures

Place Temperature

Stations

Nearby Weather Stations

Station Location Temp. Windchill Dew Point Humidity Wind Precip. Elev Updated Type
                   

Watches & Warnings

There are currently no watches in effect.